Time,TemperatureF,DewpointF,PressureIn,WindDirection,WindDirectionDegrees,WindSpeedMPH,WindSpeedGustMPH,Humidity,HourlyPrecipIn,Conditions,Clouds,dailyrainin,SolarRadiationWatts/m^2,SoftwareType,DateUTC
2013-06-14 00:01:00,54.0,53.0,29.47,ENE,70,0.0,9.0,96,0.05,,,0.98,0.000000,,2013-06-14 04:01:00,
2013-06-14 00:12:00,54.0,53.0,29.47,ENE,70,0.0,9.0,96,0.05,,,0.98,0.000000,,2013-06-14 04:12:00,
2013-06-14 00:23:00,53.0,52.0,29.47,ENE,71,2.0,9.0,95,0.06,,,1.00,0.000000,,2013-06-14 04:23:00,
2013-06-14 00:33:00,53.0,52.0,29.47,ENE,71,2.0,9.0,95,0.06,,,1.00,0.000000,,2013-06-14 04:33:00,
2013-06-14 00:43:00,53.0,52.0,29.48,NNE,18,1.0,10.0,95,0.06,,,1.02,0.000000,,2013-06-14 04:43:00,
2013-06-14 00:53:00,53.0,52.0,29.49,NE,47,2.0,7.0,95,0.07,,,1.04,0.000000,,2013-06-14 04:53:00,
2013-06-14 01:02:00,53.0,52.0,29.49,NNE,28,1.0,8.0,95,0.07,,,1.05,0.000000,,2013-06-14 05:02:00,
2013-06-14 01:12:00,53.0,52.0,29.49,NNE,28,1.0,8.0,95,0.07,,,1.05,0.000000,,2013-06-14 05:12:00,
2013-06-14 01:22:00,53.0,52.0,29.50,North,5,1.0,8.0,95,0.06,,,1.06,0.000000,,2013-06-14 05:22:00,
2013-06-14 01:34:00,52.0,51.0,29.51,NE,34,3.0,9.0,95,0.06,,,1.08,0.000000,,2013-06-14 05:34:00,
2013-06-14 01:43:00,52.0,51.0,29.51,NE,34,3.0,9.0,95,0.06,,,1.08,0.000000,,2013-06-14 05:43:00,
2013-06-14 01:52:00,52.0,51.0,29.51,NW,313,1.0,7.0,95,0.05,,,1.09,0.000000,,2013-06-14 05:52:00,
2013-06-14 02:02:00,52.0,51.0,29.52,NNE,12,0.0,5.0,95,0.05,,,1.10,0.000000,,2013-06-14 06:02:00,
2013-06-14 02:12:00,52.0,51.0,29.52,NNE,12,0.0,5.0,95,0.05,,,1.10,0.000000,,2013-06-14 06:12:00,
2013-06-14 02:22:00,52.0,51.0,29.52,NE,49,2.0,9.0,95,0.05,,,1.11,0.000000,,2013-06-14 06:22:00,
2013-06-14 02:33:00,52.0,51.0,29.53,ENE,57,1.0,8.0,95,0.04,,,1.12,0.000000,,2013-06-14 06:33:00,
2013-06-14 02:43:00,52.0,51.0,29.53,ENE,57,1.0,8.0,95,0.04,,,1.12,0.000000,,2013-06-14 06:43:00,
2013-06-14 02:52:00,52.0,51.0,29.52,East,86,0.0,6.0,95,0.05,,,1.13,0.000000,,2013-06-14 06:52:00,
2013-06-14 03:02:00,52.0,51.0,29.53,ENE,59,0.0,6.0,95,0.05,,,1.14,0.000000,,2013-06-14 07:02:00,
2013-06-14 03:12:00,52.0,51.0,29.54,NNW,336,0.0,3.0,96,0.05,,,1.15,0.000000,,2013-06-14 07:12:00,
2013-06-14 03:22:00,52.0,51.0,29.54,NNW,336,0.0,3.0,96,0.05,,,1.15,0.000000,,2013-06-14 07:22:00,
2013-06-14 03:33:00,52.0,51.0,29.55,West,274,0.0,2.0,96,0.05,,,1.17,0.000000,,2013-06-14 07:33:00,
2013-06-14 03:43:00,52.0,51.0,29.55,West,274,0.0,2.0,96,0.05,,,1.17,0.000000,,2013-06-14 07:43:00,
2013-06-14 03:53:00,51.0,50.0,29.55,ENE,68,2.0,11.0,95,0.04,,,1.18,0.000000,,2013-06-14 07:53:00,
2013-06-14 04:02:00,51.0,50.0,29.56,North,5,1.0,7.0,95,0.04,,,1.19,0.000000,,2013-06-14 08:02:00,
2013-06-14 04:12:00,51.0,50.0,29.56,North,5,1.0,7.0,95,0.04,,,1.19,0.000000,,2013-06-14 08:12:00,
2013-06-14 04:23:00,51.0,50.0,29.57,NE,39,0.0,5.0,95,0.04,,,1.20,0.000000,,2013-06-14 08:23:00,
2013-06-14 04:33:00,51.0,50.0,29.57,NE,39,0.0,5.0,95,0.04,,,1.20,0.000000,,2013-06-14 08:33:00,
2013-06-14 04:43:00,51.0,50.0,29.58,NNW,346,0.0,3.0,95,0.03,,,1.20,0.000000,,2013-06-14 08:43:00,
2013-06-14 04:53:00,50.0,49.0,29.58,NNW,348,1.0,13.0,95,0.03,,,1.21,0.000000,,2013-06-14 08:53:00,
2013-06-14 05:02:00,50.0,49.0,29.59,NE,44,1.0,6.0,95,0.03,,,1.22,0.000000,,2013-06-14 09:02:00,
2013-06-14 05:12:00,50.0,49.0,29.59,NE,44,1.0,6.0,95,0.03,,,1.22,0.000000,,2013-06-14 09:12:00,
2013-06-14 05:22:00,50.0,49.0,29.59,ENE,59,1.0,9.0,95,0.03,,,1.23,0.000000,,2013-06-14 09:22:00,
2013-06-14 05:33:00,50.0,49.0,29.59,ENE,59,1.0,9.0,95,0.03,,,1.23,0.000000,,2013-06-14 09:33:00,
2013-06-14 05:43:00,50.0,48.0,29.59,North,5,1.0,7.0,94,0.03,,,1.23,0.000000,,2013-06-14 09:43:00,
2013-06-14 05:53:00,50.0,48.0,29.60,NE,35,3.0,9.0,94,0.02,,,1.24,0.000000,,2013-06-14 09:53:00,
2013-06-14 06:01:00,50.0,48.0,29.60,NE,35,3.0,9.0,94,0.02,,,1.24,0.000000,,2013-06-14 10:01:00,
2013-06-14 06:12:00,50.0,48.0,29.61,NE,44,0.0,9.0,94,0.02,,,1.24,0.000000,,2013-06-14 10:12:00,
2013-06-14 06:22:00,50.0,48.0,29.62,NNW,348,1.0,9.0,93,0.01,,,1.23,9.000000,,2013-06-14 10:22:00,
2013-06-14 06:34:00,50.0,48.0,29.62,NNW,348,1.0,9.0,93,0.01,,,1.23,9.000000,,2013-06-14 10:34:00,
2013-06-14 06:43:00,51.0,49.0,29.62,NE,51,0.0,7.0,93,0.01,,,1.23,19.000000,,2013-06-14 10:43:00,
2013-06-14 06:53:00,51.0,49.0,29.63,North,349,1.0,8.0,92,0.00,,,1.23,12.000000,,2013-06-14 10:53:00,
2013-06-14 07:02:00,51.0,49.0,29.63,North,349,1.0,8.0,92,0.00,,,1.23,12.000000,,2013-06-14 11:02:00,
2013-06-14 07:11:00,51.0,49.0,29.63,NNW,334,1.0,7.0,92,0.00,,,1.23,46.000000,,2013-06-14 11:11:00,
2013-06-14 07:23:00,51.0,48.0,29.64,NNE,24,0.0,5.0,91,0.00,,,1.23,86.000000,,2013-06-14 11:23:00,
2013-06-14 07:32:00,52.0,49.0,29.64,NNW,338,1.0,6.0,90,0.00,,,1.23,98.000000,,2013-06-14 11:32:00,
2013-06-14 07:43:00,52.0,49.0,29.64,NNW,338,1.0,6.0,90,0.00,,,1.23,98.000000,,2013-06-14 11:43:00,
2013-06-14 07:52:00,52.0,49.0,29.65,ENE,75,2.0,6.0,89,0.00,,,1.23,81.000000,,2013-06-14 11:52:00,
2013-06-14 08:02:00,52.0,49.0,29.65,ENE,75,2.0,6.0,89,0.00,,,1.23,81.000000,,2013-06-14 12:02:00,
2013-06-14 08:12:00,53.0,50.0,29.65,NNW,338,2.0,7.0,88,0.00,,,1.23,104.000000,,2013-06-14 12:12:00,
2013-06-14 08:23:00,53.0,49.0,29.66,ENE,66,0.0,4.0,87,0.00,,,1.21,105.000000,,2013-06-14 12:23:00,
2013-06-14 08:33:00,53.0,49.0,29.66,ENE,66,0.0,4.0,87,0.00,,,1.21,105.000000,,2013-06-14 12:33:00,
2013-06-14 08:43:00,53.0,49.0,29.66,NE,47,0.0,2.0,87,0.00,,,1.21,151.000000,,2013-06-14 12:43:00,
2013-06-14 08:52:00,54.0,50.0,29.68,North,11,0.0,3.0,86,0.00,,,1.21,142.000000,,2013-06-14 12:52:00,
2013-06-14 09:02:00,54.0,50.0,29.68,North,11,0.0,3.0,86,0.00,,,1.21,142.000000,,2013-06-14 13:02:00,
2013-06-14 09:12:00,54.0,50.0,29.68,NE,43,0.0,4.0,87,0.00,,,1.21,123.000000,,2013-06-14 13:12:00,
2013-06-14 09:22:00,54.0,50.0,29.69,North,355,0.0,2.0,87,0.00,,,1.20,93.000000,,2013-06-14 13:22:00,
2013-06-14 09:33:00,54.0,50.0,29.69,North,355,0.0,2.0,87,0.00,,,1.20,93.000000,,2013-06-14 13:33:00,
2013-06-14 09:43:00,54.0,50.0,29.70,NNE,13,0.0,2.0,86,0.00,,,1.20,79.000000,,2013-06-14 13:43:00,
2013-06-14 09:53:00,54.0,50.0,29.70,North,5,0.0,4.0,87,0.00,,,1.20,135.000000,,2013-06-14 13:53:00,
2013-06-14 10:02:00,54.0,50.0,29.70,North,5,0.0,4.0,87,0.00,,,1.20,135.000000,,2013-06-14 14:02:00,
2013-06-14 10:12:00,54.0,50.0,29.70,NW,313,0.0,6.0,86,0.00,,,1.20,178.000000,,2013-06-14 14:12:00,
2013-06-14 10:22:00,55.0,51.0,29.72,WNW,300,0.0,2.0,87,0.00,,,1.13,181.000000,,2013-06-14 14:22:00,
2013-06-14 10:34:00,55.0,51.0,29.72,WNW,300,0.0,2.0,87,0.00,,,1.13,181.000000,,2013-06-14 14:34:00,
2013-06-14 10:43:00,56.0,52.0,29.72,NNE,26,0.0,3.0,88,0.01,,,1.14,232.000000,,2013-06-14 14:43:00,
2013-06-14 10:52:00,56.0,52.0,29.72,WNW,302,0.0,2.0,86,0.01,,,1.14,246.000000,,2013-06-14 14:52:00,
2013-06-14 11:02:00,57.0,53.0,29.73,NE,39,0.0,2.0,85,0.01,,,1.14,432.000000,,2013-06-14 15:02:00,
2013-06-14 11:11:00,57.0,53.0,29.73,NE,39,0.0,2.0,85,0.01,,,1.14,432.000000,,2013-06-14 15:11:00,
2013-06-14 11:23:00,59.0,53.0,29.73,NNW,346,0.0,3.0,80,0.01,,,1.07,679.000000,,2013-06-14 15:23:00,
2013-06-14 11:33:00,59.0,53.0,29.73,NNW,346,0.0,3.0,80,0.01,,,1.07,679.000000,,2013-06-14 15:33:00,
2013-06-14 11:44:00,61.0,52.0,29.73,WNW,285,0.0,4.0,73,0.00,,,1.07,749.000000,,2013-06-14 15:44:00,
2013-06-14 11:53:00,61.0,52.0,29.74,NE,50,0.0,8.0,73,0.00,,,1.07,800.000000,,2013-06-14 15:53:00,
2013-06-14 12:01:00,61.0,52.0,29.74,NE,50,0.0,8.0,73,0.00,,,1.07,800.000000,,2013-06-14 16:01:00,
2013-06-14 12:11:00,62.0,52.0,29.73,NNE,13,2.0,6.0,71,0.00,,,1.07,763.000000,,2013-06-14 16:11:00,
2013-06-14 12:23:00,63.0,55.0,29.73,NNW,336,0.0,5.0,74,0.00,,,0.98,,,2013-06-14 16:23:00,
2013-06-14 12:33:00,63.0,55.0,29.73,NNW,336,0.0,5.0,74,0.00,,,0.98,,,2013-06-14 16:33:00,
2013-06-14 12:43:00,65.0,55.0,29.73,North,10,2.0,4.0,71,0.00,,,0.98,1000.000000,,2013-06-14 16:43:00,
2013-06-14 12:53:00,65.0,56.0,29.72,ENE,69,1.0,8.0,72,0.00,,,0.98,986.000000,,2013-06-14 16:53:00,
2013-06-14 13:02:00,65.0,56.0,29.72,ENE,69,1.0,8.0,72,0.00,,,0.98,986.000000,,2013-06-14 17:02:00,
2013-06-14 13:12:00,66.0,57.0,29.72,WNW,294,0.0,7.0,72,0.00,,,0.98,,,2013-06-14 17:12:00,
2013-06-14 13:23:00,67.0,57.0,29.72,NE,38,1.0,8.0,70,0.00,,,0.89,,,2013-06-14 17:23:00,
2013-06-14 13:34:00,67.0,57.0,29.72,WSW,256,0.0,6.0,70,0.00,,,0.89,262.000000,,2013-06-14 17:34:00,
2013-06-14 13:43:00,67.0,57.0,29.72,WSW,256,0.0,6.0,70,0.00,,,0.89,262.000000,,2013-06-14 17:43:00,
2013-06-14 13:53:00,67.0,57.0,29.72,West,271,0.0,7.0,71,0.00,,,0.89,390.000000,,2013-06-14 17:53:00,
2013-06-14 14:02:00,67.0,57.0,29.72,West,271,0.0,7.0,71,0.00,,,0.89,390.000000,,2013-06-14 18:02:00,
2013-06-14 14:11:00,68.0,57.0,29.71,East,80,1.0,7.0,69,0.00,,,0.89,,,2013-06-14 18:11:00,
2013-06-14 14:22:00,68.0,57.0,29.70,North,355,0.0,4.0,69,0.00,,,0.81,318.000000,,2013-06-14 18:22:00,
2013-06-14 14:32:00,69.0,58.0,29.71,NNW,333,0.0,7.0,67,0.00,,,0.81,360.000000,,2013-06-14 18:32:00,
2013-06-14 14:43:00,69.0,58.0,29.71,NNW,333,0.0,7.0,67,0.00,,,0.81,360.000000,,2013-06-14 18:43:00,
2013-06-14 14:52:00,70.0,56.0,29.70,NE,42,1.0,4.0,62,0.00,,,0.81,178.000000,,2013-06-14 18:52:00,
2013-06-14 15:01:00,69.0,56.0,29.71,ENE,64,0.0,6.0,63,0.00,,,0.81,302.000000,,2013-06-14 19:01:00,
2013-06-14 15:11:00,69.0,56.0,29.71,ENE,64,0.0,6.0,63,0.00,,,0.81,302.000000,,2013-06-14 19:11:00,
2013-06-14 15:22:00,71.0,57.0,29.71,ENE,64,0.0,4.0,61,0.00,,,0.70,232.000000,,2013-06-14 19:22:00,
2013-06-14 15:32:00,71.0,57.0,29.71,ENE,64,0.0,4.0,61,0.00,,,0.70,232.000000,,2013-06-14 19:32:00,
2013-06-14 15:43:00,68.0,58.0,29.71,West,268,1.0,6.0,71,0.00,,,0.70,225.000000,,2013-06-14 19:43:00,
2013-06-14 15:53:00,67.0,59.0,29.71,ENE,78,0.0,4.0,75,0.00,,,0.70,265.000000,,2013-06-14 19:53:00,
2013-06-14 16:02:00,69.0,60.0,29.71,NW,318,0.0,1.0,73,0.00,,,0.70,911.000000,,2013-06-14 20:02:00,
2013-06-14 16:11:00,69.0,60.0,29.71,NW,318,0.0,1.0,73,0.00,,,0.70,911.000000,,2013-06-14 20:11:00,
2013-06-14 16:22:00,71.0,59.0,29.71,NW,306,1.0,5.0,66,0.00,,,0.66,334.000000,,2013-06-14 20:22:00,
2013-06-14 16:33:00,71.0,59.0,29.71,NW,306,1.0,5.0,66,0.00,,,0.66,334.000000,,2013-06-14 20:33:00,
2013-06-14 16:43:00,70.0,59.0,29.71,West,266,0.0,5.0,68,0.00,,,0.66,227.000000,,2013-06-14 20:43:00,
2013-06-14 16:53:00,68.0,59.0,29.73,West,270,0.0,2.0,72,0.00,,,0.66,21.000000,,2013-06-14 20:53:00,
2013-06-14 17:02:00,68.0,59.0,29.73,West,270,0.0,2.0,72,0.00,,,0.66,21.000000,,2013-06-14 21:02:00,
2013-06-14 17:12:00,61.0,55.0,29.75,SE,136,0.0,10.0,82,0.03,,,0.69,5.000000,,2013-06-14 21:12:00,
2013-06-14 17:22:00,60.0,56.0,29.74,SE,132,0.0,1.0,86,0.08,,,0.73,12.000000,,2013-06-14 21:22:00,
2013-06-14 17:34:00,60.0,56.0,29.74,SE,132,0.0,1.0,86,0.08,,,0.73,12.000000,,2013-06-14 21:34:00,
2013-06-14 17:42:00,59.0,55.0,29.74,WSW,239,0.0,4.0,88,0.13,,,0.78,30.000000,,2013-06-14 21:42:00,
2013-06-14 17:52:00,59.0,56.0,29.76,ENE,57,0.0,6.0,90,0.17,,,0.82,28.000000,,2013-06-14 21:52:00,
2013-06-14 18:02:00,58.0,55.0,29.76,ENE,59,0.0,7.0,91,0.17,,,0.86,9.000000,,2013-06-14 22:02:00,
2013-06-14 18:12:00,58.0,55.0,29.76,ENE,59,0.0,7.0,91,0.17,,,0.86,9.000000,,2013-06-14 22:12:00,
2013-06-14 18:22:00,59.0,57.0,29.76,ENE,59,0.0,0.0,92,0.15,,,0.89,60.000000,,2013-06-14 22:22:00,
2013-06-14 18:33:00,59.0,57.0,29.77,ENE,59,0.0,0.0,92,0.15,,,0.93,98.000000,,2013-06-14 22:33:00,
2013-06-14 18:43:00,59.0,57.0,29.77,ENE,59,0.0,0.0,92,0.15,,,0.93,98.000000,,2013-06-14 22:43:00,
2013-06-14 18:53:00,59.0,57.0,29.77,ENE,59,0.0,0.0,93,0.13,,,0.95,39.000000,,2013-06-14 22:53:00,
2013-06-14 19:02:00,59.0,57.0,29.77,ENE,59,0.0,0.0,93,0.11,,,0.97,42.000000,,2013-06-14 23:02:00,
2013-06-14 19:12:00,59.0,57.0,29.77,ENE,59,0.0,0.0,93,0.11,,,0.97,42.000000,,2013-06-14 23:12:00,
2013-06-14 19:22:00,59.0,57.0,29.77,NNE,22,0.0,0.0,93,0.09,,,0.84,44.000000,,2013-06-14 23:22:00,
2013-06-14 19:33:00,59.0,57.0,29.79,NNE,22,0.0,1.0,93,0.08,,,0.86,18.000000,,2013-06-14 23:33:00,
2013-06-14 19:43:00,59.0,57.0,29.79,NNE,22,0.0,1.0,93,0.08,,,0.86,18.000000,,2013-06-14 23:43:00,
2013-06-14 19:52:00,59.0,57.0,29.79,NNE,22,0.0,1.0,93,0.07,,,0.87,33.000000,,2013-06-14 23:52:00,
2013-06-14 20:01:00,59.0,57.0,29.78,NNE,22,0.0,1.0,94,0.07,,,0.89,53.000000,,2013-06-15 00:01:00,
2013-06-14 20:12:00,59.0,57.0,29.78,NNE,22,0.0,1.0,94,0.07,,,0.89,53.000000,,2013-06-15 00:12:00,
2013-06-14 20:23:00,59.0,57.0,29.77,NNE,22,0.0,0.0,93,0.06,,,0.77,16.000000,,2013-06-15 00:23:00,
2013-06-14 20:34:00,59.0,57.0,29.77,NNE,22,0.0,0.0,93,0.06,,,0.77,16.000000,,2013-06-15 00:34:00,
2013-06-14 20:43:00,59.0,57.0,29.78,NNE,22,0.0,0.0,93,0.05,,,0.78,9.000000,,2013-06-15 00:43:00,
2013-06-14 20:53:00,59.0,57.0,29.77,NNE,22,0.0,0.0,93,0.05,,,0.79,0.000000,,2013-06-15 00:53:00,
2013-06-14 21:01:00,59.0,57.0,29.77,NNE,22,0.0,0.0,93,0.05,,,0.79,0.000000,,2013-06-15 01:01:00,
2013-06-14 21:11:00,58.0,56.0,29.78,NNE,22,0.0,0.0,94,0.04,,,0.80,0.000000,,2013-06-15 01:11:00,
2013-06-14 21:22:00,58.0,56.0,29.79,NNE,22,0.0,0.0,94,0.03,,,0.77,0.000000,,2013-06-15 01:22:00,
2013-06-14 21:33:00,58.0,56.0,29.79,NNE,22,0.0,0.0,94,0.03,,,0.77,0.000000,,2013-06-15 01:33:00,
2013-06-14 21:43:00,57.0,55.0,29.80,NNE,22,0.0,0.0,93,0.03,,,0.78,0.000000,,2013-06-15 01:43:00,
2013-06-14 21:54:00,57.0,55.0,29.80,NNE,22,0.0,0.0,93,0.03,,,0.78,0.000000,,2013-06-15 01:54:00,
2013-06-14 22:02:00,57.0,55.0,29.80,NNE,22,0.0,0.0,94,0.02,,,0.78,0.000000,,2013-06-15 02:02:00,
2013-06-14 22:12:00,56.0,54.0,29.81,NNE,22,0.0,0.0,94,0.02,,,0.79,0.000000,,2013-06-15 02:12:00,
2013-06-14 22:23:00,56.0,54.0,29.81,NNE,22,0.0,0.0,94,0.02,,,0.79,0.000000,,2013-06-15 02:23:00,
2013-06-14 22:34:00,56.0,54.0,29.82,NNE,22,0.0,0.0,94,0.02,,,0.78,0.000000,,2013-06-15 02:34:00,
2013-06-14 22:43:00,56.0,54.0,29.82,NNE,22,0.0,0.0,94,0.01,,,0.78,0.000000,,2013-06-15 02:43:00,
2013-06-14 22:53:00,56.0,54.0,29.82,NNE,22,0.0,0.0,94,0.01,,,0.78,0.000000,,2013-06-15 02:53:00,
2013-06-14 23:01:00,56.0,55.0,29.83,SSW,206,0.0,1.0,95,0.00,,,0.78,0.000000,,2013-06-15 03:01:00,
2013-06-14 23:11:00,56.0,55.0,29.83,SSW,206,0.0,1.0,95,0.00,,,0.78,0.000000,,2013-06-15 03:11:00,
2013-06-14 23:24:00,56.0,55.0,29.83,SSW,206,0.0,1.0,95,0.00,,,0.76,0.000000,,2013-06-15 03:24:00,
2013-06-14 23:32:00,56.0,55.0,29.83,SSW,206,0.0,2.0,95,0.00,,,0.76,0.000000,,2013-06-15 03:32:00,
2013-06-14 23:44:00,56.0,55.0,29.83,SSW,206,0.0,2.0,95,0.00,,,0.76,0.000000,,2013-06-15 03:44:00,
2013-06-14 23:53:00,56.0,55.0,29.83,SSW,206,0.0,2.0,95,0.00,,,0.76,0.000000,,2013-06-15 03:53:00,